Time;durP1;ratioP1;P1;durP2;ratioP2;P2;SDS_P1;SDS_P2;PMS_P1;PMS_P2;Temp;Humidity;BMP_temperature;BMP_pressure;BME280_temperature;BME280_humidity;BME280_pressure;Samples;Min_cycle;Max_cycle;Signal;HPM_P1;HPM_P2
2023/08/16 00:00:31;;;;;;;2.63;1.23;;;;;;;;;;5049595;28;20536;-80
2023/08/16 00:02:57;;;;;;;2.55;1.27;;;;;;;;;;5049196;28;20029;-81
2023/08/16 00:05:24;;;;;;;5.45;2.33;;;;;;;;;;5048726;28;20025;-80
2023/08/16 00:07:50;;;;;;;8.20;2.00;;;;;;;;;;5048894;28;20029;-80
2023/08/16 00:10:16;;;;;;;2.75;1.35;;;;;;;;;;5048479;28;20021;-80
2023/08/16 00:12:42;;;;;;;2.17;1.77;;;;;;;;;;5048877;28;20120;-81
2023/08/16 00:15:08;;;;;;;5.70;1.70;;;;;;;;;;5048913;28;20029;-80
2023/08/16 00:17:34;;;;;;;2.60;1.30;;;;;;;;;;5048275;28;20021;-80
2023/08/16 00:20:00;;;;;;;3.55;1.77;;;;;;;;;;5048407;28;20083;-80
2023/08/16 00:22:26;;;;;;;3.20;1.50;;;;;;;;;;5048277;28;20056;-80
2023/08/16 00:24:52;;;;;;;3.78;1.40;;;;;;;;;;5048442;28;20036;-80
2023/08/16 00:27:18;;;;;;;2.50;1.35;;;;;;;;;;5029930;28;20029;-81
2023/08/16 00:29:46;;;;;;;2.78;1.33;;;20.30;99.90;;;;;;5048308;28;20017;-80
2023/08/16 00:32:12;;;;;;;7.10;2.05;;;;;;;;;;5043910;28;20037;-81
2023/08/16 00:34:38;;;;;;;3.15;1.92;;;;;;;;;;5047844;28;20421;-80
2023/08/16 00:37:04;;;;;;;2.92;1.85;;;;;;;;;;5047478;28;20032;-81
2023/08/16 00:39:30;;;;;;;2.90;2.20;;;;;;;;;;5041263;28;20041;-81
2023/08/16 00:41:56;;;;;;;2.97;1.27;;;;;;;;;;5032163;28;20026;-81
2023/08/16 00:44:22;;;;;;;3.67;1.52;;;;;;;;;;5041229;28;20029;-80
2023/08/16 00:46:48;;;;;;;3.00;1.63;;;;;;;;;;5041808;28;20405;-81
2023/08/16 00:49:14;;;;;;;2.78;1.27;;;;;;;;;;5048393;28;20104;-80
2023/08/16 00:51:41;;;;;;;6.68;1.52;;;;;;;;;;5047787;28;20490;-80
2023/08/16 00:54:07;;;;;;;4.47;1.52;;;;;;;;;;5047613;28;20116;-81
2023/08/16 00:56:34;;;;;;;3.83;1.15;;;20.10;99.90;;;;;;5048075;28;20116;-80
2023/08/16 00:59:00;;;;;;;4.47;1.00;;;;;;;;;;5048628;28;20025;-81
2023/08/16 01:01:26;;;;;;;6.38;1.25;;;;;;;;;;5033110;28;20034;-80
2023/08/16 01:03:52;;;;;;;3.78;1.63;;;;;;;;;;5028517;28;20036;-81
2023/08/16 01:06:18;;;;;;;1.65;1.30;;;;;;;;;;5028451;28;20021;-81
2023/08/16 01:08:44;;;;;;;5.63;1.40;;;;;;;;;;5041972;28;20385;-80
2023/08/16 01:11:11;;;;;;;2.25;1.63;;;;;;;;;;5037447;28;20112;-80
2023/08/16 01:13:43;;;;;;;;;;;19.70;99.90;;;;;;5033930;28;20628;-80
2023/08/16 01:16:11;;;;;;;2.03;1.15;;;19.70;99.90;;;;;;5048602;28;19905;-80
2023/08/16 01:18:37;;;;;;;2.85;1.08;;;;;;;;;;5046096;28;20048;-80
2023/08/16 01:21:06;;;;;;;1.77;1.20;;;19.60;99.90;;;;;;5037972;28;20100;-81
2023/08/16 01:23:52;;;;;;;3.05;1.55;;;19.80;99.90;;;;;;5048208;28;20058;-80
2023/08/16 01:26:29;;;;;;;1.80;1.60;;;19.50;99.90;;;;;;5037317;28;20108;-81
2023/08/16 01:28:57;;;;;;;2.05;1.33;;;19.40;99.90;;;;;;5023340;28;20017;-80
2023/08/16 01:31:23;;;;;;;2.30;1.63;;;;;;;;;;5047897;28;20036;-81
2023/08/16 01:33:49;;;;;;;3.55;1.85;;;;;;;;;;5040915;28;20046;-80
2023/08/16 01:36:16;;;;;;;6.30;1.40;;;;;;;;;;5028641;28;20056;-80
2023/08/16 01:38:42;;;;;;;1.88;1.13;;;;;;;;;;5028957;28;20050;-80
2023/08/16 01:41:08;;;;;;;7.55;2.05;;;;;;;;;;5048318;28;20100;-80
2023/08/16 01:43:34;;;;;;;2.22;1.55;;;;;;;;;;5034513;28;20143;-81
2023/08/16 01:46:02;;;;;;;2.22;1.20;;;19.60;99.90;;;;;;5036018;28;20032;-81
2023/08/16 01:48:29;;;;;;;4.03;1.85;;;;;;;;;;5048078;28;20064;-81
2023/08/16 01:50:55;;;;;;;12.98;2.58;;;;;;;;;;5046465;28;20044;-80
2023/08/16 01:53:21;;;;;;;6.50;2.45;;;;;;;;;;5046832;28;20108;-81
2023/08/16 01:55:47;;;;;;;5.40;1.35;;;;;;;;;;5048216;28;20027;-80
2023/08/16 01:58:13;;;;;;;3.80;1.88;;;;;;;;;;5046506;28;20083;-81
2023/08/16 02:00:39;;;;;;;2.55;1.92;;;;;;;;;;5047982;28;20025;-81
2023/08/16 02:03:05;;;;;;;5.20;1.85;;;;;;;;;;5046582;28;20025;-81
2023/08/16 02:05:31;;;;;;;9.00;1.80;;;;;;;;;;5047206;28;20095;-80
2023/08/16 02:07:57;;;;;;;8.82;2.30;;;;;;;;;;5047069;28;20029;-81
2023/08/16 02:10:23;;;;;;;3.42;1.63;;;;;;;;;;5039571;28;20095;-80
2023/08/16 02:12:49;;;;;;;3.22;1.70;;;;;;;;;;5041373;28;20045;-80
2023/08/16 02:15:15;;;;;;;3.83;1.70;;;;;;;;;;5048090;28;20025;-80
2023/08/16 02:17:41;;;;;;;3.50;1.67;;;19.30;99.90;;;;;;5051457;28;20025;-81
2023/08/16 02:20:08;;;;;;;4.45;1.55;;;;;;;;;;5051202;28;20021;-81
2023/08/16 02:22:34;;;;;;;5.40;2.13;;;;;;;;;;5051279;28;20060;-81
2023/08/16 02:25:00;;;;;;;7.35;2.03;;;;;;;;;;5043747;28;20021;-80
2023/08/16 02:27:26;;;;;;;2.63;1.60;;;;;;;;;;5031641;28;20084;-80
2023/08/16 02:29:52;;;;;;;5.15;1.60;;;;;;;;;;5033036;28;20025;-81
2023/08/16 02:32:18;;;;;;;2.28;1.63;;;;;;;;;;5032149;28;20037;-80
2023/08/16 02:34:44;;;;;;;2.33;1.48;;;;;;;;;;5032049;28;20037;-80
2023/08/16 02:37:10;;;;;;;2.83;1.77;;;;;;;;;;5025849;28;20041;-80
2023/08/16 02:39:36;;;;;;;2.53;1.52;;;;;;;;;;5039321;28;20029;-81
2023/08/16 02:42:02;;;;;;;3.70;2.08;;;;;;;;;;5036838;28;20391;-80
2023/08/16 02:44:28;;;;;;;3.22;1.45;;;;;;;;;;5031551;28;20040;-80
2023/08/16 02:46:54;;;;;;;3.88;1.80;;;;;;;;;;5032402;28;20056;-81
2023/08/16 02:49:20;;;;;;;6.55;1.60;;;;;;;;;;5031941;28;20052;-80
2023/08/16 02:51:46;;;;;;;2.38;1.65;;;;;;;;;;5031506;28;20539;-80
2023/08/16 02:54:12;;;;;;;3.28;1.58;;;;;;;;;;5032205;28;20041;-81
2023/08/16 02:56:38;;;;;;;2.63;1.70;;;;;;;;;;5031736;28;20049;-80
2023/08/16 02:59:04;;;;;;;4.18;1.40;;;;;;;;;;5031545;28;20057;-81
2023/08/16 03:01:30;;;;;;;1.88;1.45;;;;;;;;;;5031446;28;20094;-80
2023/08/16 03:03:56;;;;;;;3.08;1.65;;;;;;;;;;5039345;28;20083;-81
2023/08/16 03:06:22;;;;;;;1.20;1.10;;;;;;;;;;5050698;28;20033;-80
2023/08/16 03:08:48;;;;;;;1.95;1.65;;;;;;;;;;5042569;28;20028;-80
2023/08/16 03:11:14;;;;;;;2.97;1.58;;;;;;;;;;5031953;28;20041;-81
2023/08/16 03:13:40;;;;;;;3.35;1.45;;;;;;;;;;5043041;28;20067;-81
2023/08/16 03:16:06;;;;;;;4.72;1.38;;;;;;;;;;5030766;28;20111;-81
2023/08/16 03:18:32;;;;;;;2.38;1.67;;;;;;;;;;5031034;28;20060;-81
2023/08/16 03:20:58;;;;;;;2.28;1.33;;;;;;;;;;5031054;28;20470;-80
2023/08/16 03:23:25;;;;;;;2.17;1.38;;;;;;;;;;5031802;28;20026;-80
2023/08/16 03:25:51;;;;;;;3.72;1.50;;;;;;;;;;5031837;28;20065;-81
2023/08/16 03:28:17;;;;;;;3.63;1.50;;;;;;;;;;5046283;28;20107;-80
2023/08/16 03:30:42;;;;;;;3.80;1.33;;;;;;;;;;5031320;28;20029;-80
2023/08/16 03:33:08;;;;;;;1.70;1.13;;;;;;;;;;5030452;28;20057;-81
2023/08/16 03:35:35;;;;;;;9.98;1.27;;;;;;;;;;5030517;28;20474;-80
2023/08/16 03:38:01;;;;;;;3.33;1.45;;;;;;;;;;5031353;28;20119;-81
2023/08/16 03:40:27;;;;;;;1.80;1.20;;;;;;;;;;5045370;28;20041;-80
2023/08/16 03:42:53;;;;;;;1.25;1.10;;;;;;;;;;5053894;28;20036;-80
2023/08/16 03:45:24;;;;;;;2.20;1.40;;;;;;;;;;5035353;28;20503;-80
2023/08/16 03:47:51;;;;;;;1.67;1.15;;;;;;;;;;5030538;28;20036;-80
2023/08/16 03:50:17;;;;;;;2.13;1.45;;;;;;;;;;5045775;28;20125;-81
2023/08/16 03:52:43;;;;;;;2.30;1.35;;;;;;;;;;5050102;28;20672;-80
2023/08/16 03:55:10;;;;;;;2.33;1.45;;;;;;;;;;5048922;28;20038;-81
2023/08/16 03:57:36;;;;;;;4.20;1.60;;;;;;;;;;5049914;28;20544;-81
2023/08/16 04:00:03;;;;;;;3.13;1.50;;;;;;;;;;5048978;28;20375;-81
2023/08/16 04:02:29;;;;;;;2.72;1.48;;;;;;;;;;5049246;28;20104;-83
2023/08/16 04:04:56;;;;;;;2.28;1.25;;;;;;;;;;5046528;28;20056;-83
2023/08/16 04:07:22;;;;;;;2.67;2.15;;;;;;;;;;5048214;28;20111;-82
2023/08/16 04:09:48;;;;;;;1.83;1.33;;;;;;;;;;5043665;28;20509;-83
2023/08/16 04:12:14;;;;;;;2.30;1.70;;;;;;;;;;5030104;28;20049;-82
2023/08/16 04:14:40;;;;;;;2.70;1.20;;;;;;;;;;5031800;28;20491;-83
2023/08/16 04:17:06;;;;;;;5.70;1.50;;;;;;;;;;5048271;28;20036;-82
2023/08/16 04:19:32;;;;;;;2.33;1.20;;;;;;;;;;5047522;28;20033;-83
2023/08/16 04:21:58;;;;;;;3.30;1.88;;;;;;;;;;5049459;28;20056;-83
2023/08/16 04:24:24;;;;;;;2.72;1.30;;;;;;;;;;5048360;28;20056;-82
2023/08/16 04:26:50;;;;;;;3.13;1.25;;;;;;;;;;5043090;28;20044;-82
2023/08/16 04:29:16;;;;;;;5.18;1.42;;;;;;;;;;5047914;28;20098;-83
2023/08/16 04:31:42;;;;;;;1.70;1.20;;;;;;;;;;5045811;28;20036;-82
2023/08/16 04:34:08;;;;;;;3.67;1.67;;;;;;;;;;5047297;28;20410;-82
2023/08/16 04:36:34;;;;;;;1.77;1.33;;;;;;;;;;5043429;28;20108;-82
2023/08/16 04:39:00;;;;;;;3.85;1.42;;;;;;;;;;5046718;28;20045;-82
2023/08/16 04:41:26;;;;;;;2.85;1.75;;;;;;;;;;5048797;28;20059;-83
2023/08/16 04:43:52;;;;;;;3.13;1.38;;;;;;;;;;5046072;28;20049;-82
2023/08/16 04:46:19;;;;;;;2.72;1.58;;;;;;;;;;5038541;28;20461;-82
2023/08/16 04:48:45;;;;;;;3.28;1.75;;;;;;;;;;5047079;28;20100;-82
2023/08/16 04:51:11;;;;;;;2.97;1.67;;;;;;;;;;5032838;28;20033;-82
2023/08/16 04:53:37;;;;;;;6.90;1.52;;;;;;;;;;5033143;28;20083;-81
2023/08/16 04:56:03;;;;;;;7.47;2.05;;;;;;;;;;5048516;28;20037;-83
2023/08/16 04:58:29;;;;;;;2.72;1.92;;;;;;;;;;5046605;28;20052;-80
2023/08/16 05:00:55;;;;;;;3.97;1.70;;;;;;;;;;5047650;28;20548;-81
2023/08/16 05:03:21;;;;;;;3.13;1.67;;;;;;;;;;5047525;28;20024;-81
2023/08/16 05:05:47;;;;;;;3.75;1.60;;;;;;;;;;5048084;28;20033;-80
2023/08/16 05:08:13;;;;;;;3.03;1.70;;;;;;;;;;5033746;28;20406;-80
2023/08/16 05:10:39;;;;;;;3.17;2.22;;;;;;;;;;5038809;28;20024;-80
2023/08/16 05:13:05;;;;;;;3.58;1.92;;;;;;;;;;5029363;28;20025;-80
2023/08/16 05:15:31;;;;;;;1.35;0.90;;;;;;;;;;5028957;28;20033;-81
2023/08/16 05:17:57;;;;;;;4.65;1.33;;;;;;;;;;5028921;28;20490;-81
2023/08/16 05:20:23;;;;;;;2.00;1.10;;;;;;;;;;5043652;28;20036;-79
2023/08/16 05:22:49;;;;;;;1.40;1.00;;;;;;;;;;5043452;28;20021;-80
2023/08/16 05:25:15;;;;;;;2.72;1.40;;;;;;;;;;5041651;28;20086;-79
2023/08/16 05:27:41;;;;;;;3.63;1.67;;;;;;;;;;5042184;28;20107;-79
2023/08/16 05:30:08;;;;;;;2.28;1.40;;;;;;;;;;5037068;28;20034;-80
2023/08/16 05:32:34;;;;;;;3.97;1.70;;;;;;;;;;5042597;28;20024;-80
2023/08/16 05:35:00;;;;;;;2.80;1.35;;;;;;;;;;5046442;28;20036;-80
2023/08/16 05:37:26;;;;;;;2.40;1.35;;;;;;;;;;5037501;28;20524;-80
2023/08/16 05:39:52;;;;;;;4.57;1.52;;;;;;;;;;5045559;28;20044;-80
2023/08/16 05:42:18;;;;;;;2.38;1.55;;;;;;;;;;5043416;28;20036;-79
2023/08/16 05:44:44;;;;;;;5.47;1.58;;;;;;;;;;5046473;28;20032;-80
2023/08/16 05:47:10;;;;;;;3.55;1.63;;;;;;;;;;5043912;28;20107;-80
2023/08/16 05:49:36;;;;;;;2.17;1.42;;;;;;;;;;5046505;28;20029;-79
2023/08/16 05:52:02;;;;;;;3.72;2.00;;;;;;;;;;5049449;28;20104;-80
2023/08/16 05:54:28;;;;;;;4.28;1.50;;;;;;;;;;5049838;28;20055;-81
2023/08/16 05:56:54;;;;;;;4.03;2.45;;;;;;;;;;5045173;28;20100;-83
2023/08/16 05:59:19;;;;;;;4.95;2.42;;;21.80;99.90;;;;;;5026221;28;20041;-84
2023/08/16 06:01:45;;;;;;;2.47;1.50;;;;;;;;;;5044623;28;20767;-83
2023/08/16 06:04:11;;;;;;;4.45;2.15;;;;;;;;;;5048066;28;20033;-84
2023/08/16 06:06:37;;;;;;;5.15;2.08;;;;;;;;;;5049720;28;20033;-81
2023/08/16 06:09:03;;;;;;;3.95;1.95;;;;;;;;;;5049167;28;20086;-84
2023/08/16 06:11:29;;;;;;;2.47;1.90;;;;;;;;;;5036054;28;20029;-82
2023/08/16 06:13:55;;;;;;;3.13;1.67;;;;;;;;;;5050120;28;20092;-83
2023/08/16 06:16:21;;;;;;;2.90;1.90;;;;;;;;;;5048332;28;20022;-82
2023/08/16 06:18:49;;;;;;;4.63;1.77;;;;;;;;;;5049359;28;20029;-80
2023/08/16 06:21:14;;;;;;;;;;;22.40;96.90;;;;;;5049906;28;20393;-80
2023/08/16 06:23:42;;;;;;;3.80;1.80;;;;;;;;;;5048014;28;19909;-79
2023/08/16 06:26:09;;;;;;;2.30;1.48;;;;;;;;;;5042804;28;20497;-82
2023/08/16 06:28:35;;;;;;;2.85;1.60;;;;;;;;;;5019205;28;20034;-81
2023/08/16 06:31:02;;;;;;;7.95;1.75;;;;;;;;;;5041449;28;20029;-81
2023/08/16 06:33:28;;;;;;;2.03;1.65;;;;;;;;;;5040461;28;20094;-80
2023/08/16 06:35:54;;;;;;;4.28;1.83;;;;;;;;;;5044502;28;20033;-80
2023/08/16 06:38:21;;;;;;;7.00;1.98;;;;;;;;;;5045392;28;20033;-83
2023/08/16 06:40:47;;;;;;;2.20;1.85;;;;;;;;;;5045119;28;20022;-83
2023/08/16 06:43:13;;;;;;;2.83;1.90;;;;;;;;;;5026807;28;20530;-83
2023/08/16 06:45:39;;;;;;;3.38;1.45;;;;;;;;;;5033122;28;20048;-83
2023/08/16 06:48:05;;;;;;;4.30;1.98;;;;;;;;;;5050093;28;20368;-83
2023/08/16 06:50:32;;;;;;;6.55;2.70;;;23.80;93.20;;;;;;5048477;28;20025;-83
2023/08/16 06:52:58;;;;;;;5.88;2.10;;;;;;;;;;5064614;28;20072;-83
2023/08/16 06:55:24;;;;;;;4.80;2.10;;;;;;;;;;5048503;28;20123;-83
2023/08/16 06:57:50;;;;;;;3.95;1.95;;;;;;;;;;5048807;28;20036;-81
2023/08/16 07:00:17;;;;;;;4.00;1.95;;;;;;;;;;5047894;28;20029;-82
2023/08/16 07:02:43;;;;;;;3.47;2.58;;;;;;;;;;5048590;28;20033;-84
2023/08/16 07:05:11;;;;;;;3.38;2.28;;;;;;;;;;5048298;28;20025;-81
2023/08/16 07:07:37;;;;;;;4.43;2.95;;;;;;;;;;5041806;28;20124;-81
2023/08/16 07:10:04;;;;;;;2.60;1.70;;;;;;;;;;5042023;28;20124;-80
2023/08/16 07:12:29;;;;;;;;;;;31.80;60.70;;;;;;5041656;28;20102;-83
2023/08/16 07:14:55;;;;;;;4.17;2.03;;;;;;;;;;5031493;28;19967;-82
2023/08/16 07:17:21;;;;;;;3.50;1.98;;;;;;;;;;5030671;28;20025;-82
2023/08/16 07:19:48;;;;;;;3.42;2.05;;;;;;;;;;5047790;28;20024;-80
2023/08/16 07:22:14;;;;;;;13.50;2.72;;;29.00;66.10;;;;;;5049429;28;20056;-80
2023/08/16 07:24:40;;;;;;;5.03;2.80;;;;;;;;;;5047940;28;20082;-80
2023/08/16 07:27:06;;;;;;;5.73;2.20;;;;;;;;;;5043145;28;20263;-79
2023/08/16 07:29:32;;;;;;;15.15;2.92;;;;;;;;;;5048205;28;20861;-80
2023/08/16 07:31:58;;;;;;;3.17;1.95;;;;;;;;;;5049096;28;20095;-81
2023/08/16 07:34:24;;;;;;;3.88;2.17;;;;;;;;;;5038068;28;20514;-85
2023/08/16 07:36:50;;;;;;;4.95;2.30;;;;;;;;;;5037038;28;20082;-83
2023/08/16 07:39:16;;;;;;;4.22;2.13;;;;;;;;;;5026624;28;20116;-84
2023/08/16 07:41:42;;;;;;;3.15;1.73;;;;;;;;;;5031978;28;20099;-82
2023/08/16 07:44:09;;;;;;;3.90;2.05;;;;;;;;;;5038671;28;20597;-79
2023/08/16 07:46:35;;;;;;;5.07;1.67;;;;;;;;;;5039717;28;20025;-83
2023/08/16 07:49:01;;;;;;;2.72;1.80;;;;;;;;;;5040707;28;20283;-84
2023/08/16 07:51:28;;;;;;;3.90;2.05;;;;;;;;;;5044573;28;20029;-85
2023/08/16 07:53:54;;;;;;;2.60;1.77;;;;;;;;;;5042952;28;20021;-85
2023/08/16 07:56:19;;;;;;;4.80;1.95;;;;;;;;;;5041255;28;20029;-85
2023/08/16 07:58:45;;;;;;;5.57;2.38;;;;;;;;;;5042070;28;20033;-85
2023/08/16 08:01:12;;;;;;;5.85;2.40;;;;;;;;;;5042301;28;20447;-86
2023/08/16 08:03:38;;;;;;;4.15;1.73;;;;;;;;;;5042244;28;20029;-85
2023/08/16 08:06:04;;;;;;;2.38;1.60;;;;;;;;;;5042518;28;20049;-87
2023/08/16 08:08:30;;;;;;;8.63;1.65;;;;;;;;;;5053580;28;20147;-81
2023/08/16 08:10:56;;;;;;;3.42;2.10;;;;;;;;;;5036463;28;20028;-81
2023/08/16 08:13:22;;;;;;;3.78;1.13;;;;;;;;;;5034276;28;20021;-80
2023/08/16 08:15:48;;;;;;;6.22;1.92;;;;;;;;;;5036269;28;20076;-86
2023/08/16 08:18:14;;;;;;;1.70;1.33;;;;;;;;;;5042227;28;20045;-84
2023/08/16 08:20:40;;;;;;;3.58;1.30;;;;;;;;;;5038192;28;20034;-87
2023/08/16 08:23:06;;;;;;;3.00;0.80;;;;;;;;;;5041412;28;20014;-87
2023/08/16 08:25:32;;;;;;;2.72;1.42;;;;;;;;;;5050168;28;20036;-87
2023/08/16 08:27:58;;;;;;;2.53;1.17;;;;;;;;;;5041202;28;20021;-86
2023/08/16 08:30:24;;;;;;;4.97;1.77;;;;;;;;;;5038202;28;20098;-86
2023/08/16 08:32:50;;;;;;;2.20;1.30;;;33.60;63.30;;;;;;5043910;28;20049;-87
2023/08/16 08:35:20;;;;;;;3.93;1.90;;;36.60;48.80;;;;;;5057842;28;20033;-90
2023/08/16 08:37:47;;;;;;;1.55;1.13;;;;;;;;;;5045589;28;20039;-92
2023/08/16 08:40:13;;;;;;;2.10;1.08;;;46.90;37.00;;;;;;5064369;28;20060;-90
2023/08/16 08:42:40;;;;;;;1.55;1.00;;;;;;;;;;5043337;28;20030;-88
2023/08/16 08:45:06;;;;;;;1.73;0.70;;;52.70;31.70;;;;;;5060113;28;20021;-82
2023/08/16 08:47:32;;;;;;;0.95;0.47;;;;;;;;;;5043211;28;20040;-84
2023/08/16 08:50:00;;;;;;;1.55;0.88;;;55.70;28.80;;;;;;5034361;28;20031;-84
2023/08/16 08:52:26;;;;;;;0.90;0.80;;;;;;;;;;5036194;28;20021;-85
2023/08/16 08:54:52;;;;;;;1.98;0.80;;;;;;;;;;5040685;28;20043;-83
2023/08/16 08:57:19;;;;;;;1.80;1.00;;;;;;;;;;5027111;28;20486;-82
2023/08/16 08:59:49;;;;;;;1.63;0.60;;;;;;;;;;5033006;28;20083;-81
2023/08/16 09:02:17;;;;;;;1.33;0.73;;;58.50;26.00;;;;;;5046492;28;20041;-84
2023/08/16 09:04:44;;;;;;;1.38;0.70;;;;;;;;;;5034261;28;20037;-85
2023/08/16 09:07:11;;;;;;;0.88;0.80;;;60.00;25.30;;;;;;5039378;28;20025;-87
2023/08/16 09:09:38;;;;;;;1.98;1.00;;;;;;;;;;5037284;28;20036;-86
2023/08/16 09:12:04;;;;;;;2.30;0.68;;;;;;;;;;5049639;28;20492;-85
2023/08/16 09:14:30;;;;;;;1.05;0.88;;;;;;;;;;5035953;28;20037;-88
2023/08/16 09:16:56;;;;;;;1.13;0.70;;;;;;;;;;5039246;28;20059;-84
2023/08/16 09:19:22;;;;;;;2.80;0.88;;;;;;;;;;5039372;28;20033;-85
2023/08/16 09:21:51;;;;;;;1.17;0.80;;;;;;;;;;5036715;28;20025;-82
2023/08/16 09:24:23;;;;;;;1.95;0.95;;;57.80;27.40;;;;;;5036464;28;20144;-86
2023/08/16 09:26:49;;;;;;;4.35;0.75;;;58.10;27.70;;;;;;5036883;28;20029;-93
2023/08/16 09:29:17;;;;;;;0.88;0.70;;;58.50;24.10;;;;;;5041144;28;20402;-90
2023/08/16 09:31:44;;;;;;;0.75;0.65;;;;;;;;;;5035859;28;20036;-84
2023/08/16 09:34:13;;;;;;;2.47;0.80;;;59.60;23.60;;;;;;5032668;28;20068;-82
2023/08/16 09:36:46;;;;;;;0.77;0.60;;;60.50;24.40;;;;;;5023600;28;20095;-82
2023/08/16 09:39:12;;;;;;;1.00;0.90;;;;;;;;;;5031181;28;20112;-82
2023/08/16 09:41:50;;;;;;;4.53;0.80;;;60.00;24.70;;;;;;5045063;28;20045;-82
2023/08/16 09:44:17;;;;;;;0.70;0.70;;;;;;;;;;5024315;28;20057;-83
2023/08/16 09:46:42;;;;;;;4.55;1.00;;;60.90;26.60;;;;;;5048115;28;20029;-90
2023/08/16 09:49:12;;;;;;;1.63;0.80;;;61.20;22.80;;;;;;5044571;28;20022;-88
2023/08/16 09:51:40;;;;;;;1.13;0.70;;;60.60;22.30;;;;;;5038417;28;20500;-82
2023/08/16 09:54:14;;;;;;;1.27;1.17;;;57.90;22.50;;;;;;5041496;28;20098;-81
2023/08/16 09:56:42;;;;;;;1.08;0.98;;;56.30;22.60;;;;;;5039707;28;20048;-82
2023/08/16 09:59:09;;;;;;;1.23;0.50;;;50.80;23.90;;;;;;5039050;28;20033;-85
2023/08/16 10:01:35;;;;;;;1.67;0.50;;;45.90;25.70;;;;;;5052441;28;20068;-82
2023/08/16 10:04:02;;;;;;;0.70;0.60;;;43.40;27.20;;;;;;5050690;28;20021;-83
2023/08/16 10:06:32;;;;;;;1.63;0.80;;;45.90;27.50;;;;;;5045230;28;20067;-86
2023/08/16 10:08:58;;;;;;;0.60;0.60;;;;;;;;;;5049495;28;20029;-83
2023/08/16 10:11:24;;;;;;;0.95;0.63;;;;;;;;;;5035181;28;20486;-84
2023/08/16 10:13:51;;;;;;;3.03;1.38;;;;;;;;;;5053751;28;20045;-84
2023/08/16 10:16:21;;;;;;;1.10;0.93;;;58.10;22.70;;;;;;5054503;28;20025;-84
2023/08/16 10:18:47;;;;;;;0.88;0.60;;;59.00;22.30;;;;;;5041782;28;20037;-83
2023/08/16 10:21:17;;;;;;;1.08;0.60;;;58.90;22.00;;;;;;5036451;28;20021;-83
2023/08/16 10:23:43;;;;;;;0.73;0.73;;;59.50;22.10;;;;;;5048142;28;20032;-86
2023/08/16 10:26:19;;;;;;;1.30;0.60;;;59.30;22.10;;;;;;5028705;28;20367;-86
2023/08/16 10:28:51;;;;;;;0.40;0.40;;;59.70;22.00;;;;;;5030674;28;20033;-86
2023/08/16 10:31:22;;;;;;;0.60;0.40;;;59.90;21.90;;;;;;5033232;28;20017;-86
2023/08/16 10:33:50;;;;;;;1.17;0.32;;;60.30;21.80;;;;;;5028991;28;20132;-86
2023/08/16 10:36:16;;;;;;;1.13;0.47;;;60.80;21.70;;;;;;5016052;28;20030;-86
2023/08/16 10:38:42;;;;;;;2.22;0.70;;;;;;;;;;5032003;28;20879;-87
2023/08/16 10:41:12;;;;;;;3.47;0.52;;;;;;;;;;5033973;28;20445;-87
2023/08/16 10:43:38;;;;;;;0.63;0.40;;;;;;;;;;5036090;28;20520;-87
2023/08/16 10:46:04;;;;;;;0.50;0.45;;;;;;;;;;5037549;28;20017;-86
2023/08/16 10:48:34;;;;;;;0.50;0.40;;;59.40;20.90;;;;;;5045824;28;20028;-86
2023/08/16 10:51:04;;;;;;;1.02;0.50;;;59.80;21.10;;;;;;5037711;28;20025;-85
2023/08/16 10:53:30;;;;;;;0.52;0.40;;;;;;;;;;5048474;28;20036;-87
2023/08/16 10:55:56;;;;;;;0.60;0.50;;;;;;;;;;5049987;28;20037;-87
2023/08/16 10:58:25;;;;;;;0.40;0.30;;;56.90;20.40;;;;;;5043637;28;20029;-85
2023/08/16 11:00:58;;;;;;;1.63;0.50;;;53.70;21.80;;;;;;5042532;28;20033;-84
2023/08/16 11:03:34;;;;;;;0.98;0.40;;;50.90;22.70;;;;;;5042354;28;20071;-84
2023/08/16 11:06:05;;;;;;;0.63;0.40;;;50.10;23.20;;;;;;5045544;28;20032;-84
2023/08/16 11:08:32;;;;;;;1.20;0.40;;;;;;;;;;5032455;28;20052;-83
2023/08/16 11:11:00;;;;;;;0.95;0.45;;;45.90;24.30;;;;;;5042793;28;20029;-84
2023/08/16 11:13:28;;;;;;;0.60;0.43;;;41.90;24.80;;;;;;5038164;28;20585;-84
2023/08/16 11:15:54;;;;;;;1.02;0.38;;;;;;;;;;5039935;28;20549;-84
2023/08/16 11:18:28;;;;;;;1.40;0.85;;;41.10;30.60;;;;;;5038899;28;20168;-82
2023/08/16 11:20:54;;;;;;;1.15;0.30;;;;;;;;;;5035237;28;20284;-82
2023/08/16 11:23:20;;;;;;;1.15;0.65;;;;;;;;;;5032121;28;20029;-84
2023/08/16 11:25:46;;;;;;;1.27;0.50;;;;;;;;;;5032380;28;20633;-84
2023/08/16 11:28:17;;;;;;;1.15;0.65;;;42.40;25.50;;;;;;5033500;28;20055;-84
2023/08/16 11:30:43;;;;;;;2.22;0.70;;;;;;;;;;5034244;28;20089;-84
2023/08/16 11:33:15;;;;;;;1.50;0.68;;;52.70;25.10;;;;;;5033787;28;20060;-84
2023/08/16 11:35:41;;;;;;;1.05;0.47;;;;;;;;;;5035258;28;20497;-84
2023/08/16 11:38:08;;;;;;;0.93;0.50;;;;;;;;;;5033289;28;20026;-85
2023/08/16 11:40:34;;;;;;;0.50;0.30;;;;;;;;;;5032571;28;20063;-83
2023/08/16 11:43:04;;;;;;;1.75;0.50;;;47.40;23.30;;;;;;5048400;28;20119;-86
2023/08/16 11:45:30;;;;;;;1.73;0.50;;;;;;;;;;5034384;28;20036;-83
2023/08/16 11:47:56;;;;;;;;;;;45.10;25.00;;;;;;5031618;28;20029;-84
2023/08/16 11:50:25;;;;;;;2.78;0.80;;;;;;;;;;5069873;28;20289;-83
2023/08/16 11:53:01;;;;;;;1.08;0.57;;;39.90;35.40;;;;;;5034632;28;20039;-84
2023/08/16 11:55:29;;;;;;;3.75;0.55;;;;;;;;;;5029161;28;20065;-83
2023/08/16 11:58:03;;;;;;;1.10;0.60;;;41.60;27.10;;;;;;5037384;28;20026;-84
2023/08/16 12:00:29;;;;;;;1.13;0.60;;;;;;;;;;5034002;28;20050;-84
2023/08/16 12:02:57;;;;;;;;;;;43.30;26.10;;;;;;5033570;28;20025;-84
2023/08/16 12:05:25;;;;;;;1.33;0.40;;;42.50;26.50;;;;;;5030557;28;20382;-83
2023/08/16 12:07:51;;;;;;;5.03;0.80;;;;;;;;;;5032428;28;20045;-84
2023/08/16 12:10:27;;;;;;;1.67;0.52;;;42.50;27.60;;;;;;5028446;28;20029;-83
2023/08/16 12:12:56;;;;;;;1.40;0.73;;;42.50;27.60;;;;;;5030559;28;20043;-83
2023/08/16 12:15:26;;;;;;;1.45;0.43;;;41.90;27.70;;;;;;5033428;28;20591;-82
2023/08/16 12:17:57;;;;;;;1.33;0.50;;;41.40;28.10;;;;;;5036041;28;20044;-82
2023/08/16 12:20:25;;;;;;;1.90;0.60;;;;;;;;;;5031551;28;20195;-82
2023/08/16 12:22:52;;;;;;;1.33;0.65;;;40.80;28.70;;;;;;5033773;28;20025;-83
2023/08/16 12:25:18;;;;;;;2.15;0.70;;;;;;;;;;5033085;28;20425;-84
2023/08/16 12:27:44;;;;;;;1.17;0.65;;;;;;;;;;5037802;28;20040;-83
2023/08/16 12:30:10;;;;;;;0.82;0.45;;;;;;;;;;5034186;28;20034;-84
2023/08/16 12:32:36;;;;;;;1.95;0.80;;;;;;;;;;5033898;28;20065;-83
2023/08/16 12:35:02;;;;;;;1.42;0.40;;;39.70;38.10;;;;;;5033863;28;20084;-82
2023/08/16 12:37:28;;;;;;;3.40;0.73;;;;;;;;;;5036024;28;20459;-82
2023/08/16 12:39:54;;;;;;;4.00;0.77;;;;;;;;;;5032370;28;20037;-82
2023/08/16 12:42:20;;;;;;;0.70;0.40;;;;;;;;;;5032683;28;20043;-88
2023/08/16 12:44:46;;;;;;;0.60;0.30;;;;;;;;;;5033059;28;20041;-85
2023/08/16 12:47:12;;;;;;;3.13;0.70;;;;;;;;;;5029365;28;20509;-85
2023/08/16 12:49:38;;;;;;;0.60;0.40;;;;;;;;;;5033067;28;20037;-86
2023/08/16 12:52:04;;;;;;;2.45;0.90;;;;;;;;;;5032020;28;20017;-86
2023/08/16 12:54:30;;;;;;;1.83;1.00;;;;;;;;;;5032755;28;20736;-86
2023/08/16 12:56:56;;;;;;;0.68;0.52;;;;;;;;;;5036428;28;20049;-84
2023/08/16 12:59:22;;;;;;;1.58;1.00;;;;;;;;;;5032122;28;20063;-85
2023/08/16 13:01:48;;;;;;;4.13;0.90;;;;;;;;;;5036179;28;20085;-84
2023/08/16 13:04:14;;;;;;;3.42;0.90;;;;;;;;;;5032920;28;20025;-85
2023/08/16 13:06:41;;;;;;;1.00;0.40;;;;;;;;;;5034754;28;20041;-86
2023/08/16 13:09:10;;;;;;;1.15;0.95;;;;;;;;;;5032436;28;20030;-86
2023/08/16 13:11:36;;;;;;;1.15;1.00;;;36.30;29.70;;;;;;5034004;28;20052;-85
2023/08/16 13:14:05;;;;;;;;;;;36.30;29.60;;;;;;5041923;28;20494;-86
2023/08/16 13:16:31;;;;;;;1.45;0.75;;;;;;;;;;5036432;28;19905;-84
2023/08/16 13:18:57;;;;;;;2.13;1.08;;;;;;;;;;5040855;28;20036;-82
2023/08/16 13:21:23;;;;;;;1.15;0.73;;;;;;;;;;5036787;28;20489;-82
2023/08/16 13:23:52;;;;;;;1.92;0.70;;;35.10;31.90;;;;;;5040019;28;20181;-82
2023/08/16 13:26:18;;;;;;;2.03;0.82;;;;;;;;;;5030277;28;20057;-82
2023/08/16 13:28:44;;;;;;;4.38;0.88;;;;;;;;;;5033780;28;20087;-82
2023/08/16 13:31:10;;;;;;;2.35;0.77;;;;;;;;;;5037573;28;20052;-81
2023/08/16 13:33:36;;;;;;;1.85;1.50;;;;;;;;;;5039593;28;20049;-82
2023/08/16 13:36:03;;;;;;;1.45;0.82;;;;;;;;;;5037602;28;20052;-82
2023/08/16 13:38:29;;;;;;;1.23;0.80;;;;;;;;;;5040905;28;20489;-81
2023/08/16 13:40:55;;;;;;;2.67;1.00;;;;;;;;;;5036859;28;20017;-82
2023/08/16 13:43:21;;;;;;;1.42;0.88;;;;;;;;;;5040856;28;20032;-83
2023/08/16 13:45:47;;;;;;;2.05;0.70;;;;;;;;;;5035504;28;20032;-82
2023/08/16 13:48:13;;;;;;;2.30;0.85;;;;;;;;;;5040041;28;20040;-82
2023/08/16 13:50:39;;;;;;;2.35;1.20;;;;;;;;;;5036763;28;20033;-83
2023/08/16 13:53:06;;;;;;;2.03;0.75;;;;;;;;;;5040525;28;20021;-82
2023/08/16 13:55:32;;;;;;;1.92;1.00;;;;;;;;;;5036491;28;20056;-83
2023/08/16 13:57:58;;;;;;;4.18;1.10;;;;;;;;;;5041188;28;20040;-83
2023/08/16 14:00:24;;;;;;;2.20;1.10;;;;;;;;;;5035176;28;20022;-82
2023/08/16 14:02:50;;;;;;;2.03;1.35;;;;;;;;;;5036304;28;20258;-90
2023/08/16 14:05:19;;;;;;;2.72;1.08;;;;;;;;;;5029172;28;20132;-87
2023/08/16 14:07:46;;;;;;;2.17;1.08;;;;;;;;;;5039426;28;20016;-90
2023/08/16 14:10:12;;;;;;;2.22;1.10;;;;;;;;;;5034222;28;20037;-86
2023/08/16 14:12:39;;;;;;;4.00;1.40;;;;;;;;;;5032430;28;20021;-85
2023/08/16 14:15:06;;;;;;;;;;;31.50;33.70;;;;;;5033124;28;20025;-85